Dover Foxcroft, Maine
Current Conditions -  °F | °C
As of 4:53 PM on Friday 24 Oct 2014 (Local Time) from KBGR Reporting Station
Drizzle Drizzle  
Wind Chill: 38°   Ceiling: 700
Heat Index: 45°   Visibility: 2mi
Dew Point: 44°   Wind: 15mph
Humidity: 97%   Direction: 350°N
Pressure: 29.65"   Gusts: NA
Location:  45.19°N, 69.23°W
Report Text: KBGR 242053Z 35013KT 2SM -DZ BR BKN007 OVC013 07/07 A2965 RMK AO2 SLP040 P0000 60000 T00720067 55001
Loading
Personal Weather Stations






























Interactive Weather Map New forecast layout! Learn more

10-Day Weather Forecast

Advertisements
Track Severe Weather on mobile